Maryland METAR Reports


Distance/Direction noted is from Ellicott City, MD as the crow flies

KCBE - Cumberland - 118 miles WNW
Updated: Wed, 07/30/2014 12:55 PM
Clear
Clear
 Wind from SE
Wind: SE 3 mph
Temperature: 79°F
Dew Point: 55°F
Humidity: 45%
Barometer: 30.10 inHg
Clouds: Clear
Visibility: 10 miles
2014/07/30 16:55 KCBE 301655Z AUTO 14003KT 10SM CLR 26/13 A3010 RMK AO1
KHGR - Hagerstown - 57 miles NW
Updated: Wed, 07/30/2014 12:53 PM
Clear
Clear
 Wind from WSW
Wind: WSW 9 mph
Temperature: 72°F
Dew Point: 48°F
Humidity: 44%
Barometer: 30.08 inHg
Clouds: Clear
Visibility: 10 miles
2014/07/30 16:53 KHGR 301653Z 24008KT 10SM CLR 22/09 A3008 RMK AO2 SLP193 T02220094
 
KFDK - Frederick - 34 miles NW
Updated: Wed, 07/30/2014 12:45 PM
Partly Cloudy
Partly Cloudy
 Wind from W
Wind: W 7 mph
Temperature: 77°F
Dew Point: 55°F
Humidity: 47%
Barometer: 30.10 inHg
Clouds: Partly Cloudy
Visibility: 10 miles
Cloud Details: Partly Cloudy 4900 ft
2014/07/30 16:45 KFDK 301645Z 26006KT 10SM SCT049 25/13 A3010
KGAI - Gaithersburg - 26 miles SW
Updated: Wed, 07/30/2014 12:55 PM
Partly Cloudy
Partly Cloudy
 Wind from calm
Wind: Calm
Temperature: 72°F
Dew Point: 52°F
Humidity: 50%
Barometer: 30.11 inHg
Clouds: Partly Cloudy
Visibility: 10 miles
Cloud Details: Partly Cloudy 5000 ft
2014/07/30 16:55 KGAI 301655Z AUTO 00000KT 10SM SCT050 22/11 A3011 RMK AO1
 
KBWI - BWI Airport - 15 miles SE
Updated: Wed, 07/30/2014 12:54 PM
Partly Cloudy
Partly Cloudy
 Wind from varies
Wind: varies 7 mph
Temperature: 79°F
Dew Point: 48°F
Humidity: 34%
Barometer: 30.06 inHg
Clouds: Partly Cloudy
Visibility: 10 miles
Cloud Details: Partly Cloudy 5500 ft
2014/07/30 16:54 KBWI 301654Z VRB06KT 10SM SCT055 26/09 A3006 RMK AO2 SLP179 T02560094
KNAK - Annapolis - 32 miles SSE
Updated: Wed, 07/30/2014 12:54 PM
Mostly Cloudy
Mostly Cloudy
 Wind from ESE
Wind: ESE 9 mph
Temperature: 73°F
Dew Point: 57°F
Humidity: 57%
Barometer: 30.07 inHg
Clouds: Mostly Cloudy
Visibility: 10 miles
Cloud Details: Mostly Cloudy 5500 ft
2014/07/30 16:54 KNAK 301654Z AUTO 12008KT 10SM BKN055 23/14 A3007 RMK AO2 SLP184 T02280139
 
KESN - Easton - 63 miles SE
Updated: Wed, 07/30/2014 12:50 PM
Partly Cloudy
Partly Cloudy
 Wind from NW
Wind: NW 6 mph
Temperature: 77°F
Dew Point: 55°F
Humidity: 47%
Barometer: 30.11 inHg
Clouds: Partly Cloudy
Visibility: 10 miles
Cloud Details: Partly Cloudy 3900 ft
2014/07/30 16:50 KESN 301650Z 31005KT 10SM SCT039 25/13 A3011
KSBY - Salisbury - 112 miles SE
Updated: Wed, 07/30/2014 12:54 PM
Partly Cloudy
Partly Cloudy
 Wind from NW
Wind: NW 8 mph
Temperature: 79°F
Dew Point: 52°F
Humidity: 39%
Barometer: 30.07 inHg
Clouds: Partly Cloudy
Visibility: 10 miles
Cloud Details: Partly Cloudy 5500 ft
2014/07/30 16:54 KSBY 301654Z 31007KT 10SM SCT055 26/11 A3007 RMK AO2 SLP183 T02610106